createdAt,value
2018-01-19T00:02:11.687Z,95.16
2018-01-19T00:04:39.274Z,95.22
2018-01-19T00:07:06.902Z,95.22
2018-01-19T00:09:34.487Z,95.37
2018-01-19T00:12:02.107Z,95.67
2018-01-19T00:14:29.689Z,95.68
2018-01-19T00:16:58.954Z,95.80
2018-01-19T00:19:26.545Z,95.86
2018-01-19T00:21:54.191Z,95.75
2018-01-19T00:24:21.801Z,96.09
2018-01-19T00:26:49.628Z,96.03
2018-01-19T00:29:17.201Z,95.87
2018-01-19T00:31:44.811Z,95.75
2018-01-19T00:34:12.414Z,95.72
2018-01-19T00:36:40.018Z,95.49
2018-01-19T00:39:07.606Z,95.47
2018-01-19T00:41:35.232Z,95.57
2018-01-19T00:44:02.806Z,95.23
2018-01-19T00:46:30.442Z,95.34
2018-01-19T00:48:58.049Z,95.60
2018-01-19T00:51:25.844Z,95.75
2018-01-19T00:53:53.609Z,95.74
2018-01-19T00:56:21.254Z,95.67
2018-01-19T00:58:48.881Z,96.09
2018-01-19T01:01:16.498Z,96.33
2018-01-19T01:03:44.182Z,96.21
2018-01-19T01:06:11.802Z,95.94
2018-01-19T01:08:39.395Z,96.06
2018-01-19T01:11:07.206Z,96.54
2018-01-19T01:13:34.817Z,96.62
2018-01-19T01:16:02.432Z,96.46
2018-01-19T01:18:30.024Z,96.88
2018-01-19T01:20:57.634Z,96.77
2018-01-19T01:23:25.222Z,96.74
2018-01-19T01:25:52.825Z,96.50
2018-01-19T01:28:20.409Z,96.80
2018-01-19T01:30:48.046Z,96.96
2018-01-19T01:33:15.630Z,96.73
2018-01-19T01:35:43.243Z,96.67
2018-01-19T01:38:10.973Z,96.68
2018-01-19T01:40:38.589Z,97.05
2018-01-19T01:43:06.181Z,96.61
2018-01-19T01:45:33.805Z,96.82
2018-01-19T01:48:01.525Z,96.79
2018-01-19T01:50:29.221Z,96.65
2018-01-19T01:52:56.804Z,96.52
2018-01-19T01:55:24.473Z,96.44
2018-01-19T01:57:52.073Z,96.61
2018-01-19T02:00:19.693Z,96.86
2018-01-19T02:02:47.378Z,96.95
2018-01-19T02:05:15.040Z,97.15
2018-01-19T02:07:42.617Z,97.40
2018-01-19T02:10:10.346Z,97.56
2018-01-19T02:12:37.933Z,97.56
2018-01-19T02:15:05.709Z,97.81
2018-01-19T02:17:33.374Z,97.93
2018-01-19T02:20:00.986Z,98.01
2018-01-19T02:22:28.649Z,97.97
2018-01-19T02:24:56.232Z,98.14
2018-01-19T02:27:23.838Z,98.23
2018-01-19T02:29:51.426Z,98.27
2018-01-19T02:32:19.056Z,98.38
2018-01-19T02:34:46.655Z,98.28
2018-01-19T02:37:14.301Z,98.24
2018-01-19T02:39:41.884Z,98.19
2018-01-19T02:42:09.599Z,98.01
2018-01-19T02:44:37.190Z,97.83
2018-01-19T02:47:04.805Z,97.97
2018-01-19T02:49:32.394Z,97.94
2018-01-19T02:52:00.016Z,97.86
2018-01-19T02:54:27.610Z,97.87
2018-01-19T02:56:55.225Z,97.64
2018-01-19T02:59:22.805Z,97.72
2018-01-19T03:01:50.412Z,97.70
2018-01-19T03:04:18.005Z,97.73
2018-01-19T03:06:45.615Z,97.65
2018-01-19T03:09:13.198Z,97.49
2018-01-19T03:11:40.831Z,97.42
2018-01-19T03:14:08.421Z,97.31
2018-01-19T03:16:36.022Z,97.17
2018-01-19T03:19:03.602Z,97.47
2018-01-19T03:21:31.206Z,97.41
2018-01-19T03:23:58.797Z,97.79
2018-01-19T03:26:26.424Z,97.93
2018-01-19T03:28:54.015Z,98.06
2018-01-19T03:31:21.625Z,98.28
2018-01-19T03:33:49.205Z,98.35
2018-01-19T03:36:16.822Z,98.40
2018-01-19T03:38:44.396Z,98.23
2018-01-19T03:41:12.002Z,97.89
2018-01-19T03:43:39.577Z,97.28
2018-01-19T03:46:07.185Z,97.18
2018-01-19T03:48:34.760Z,97.40
2018-01-19T03:51:02.406Z,97.49
2018-01-19T03:53:29.981Z,97.52
2018-01-19T03:55:57.596Z,97.31
2018-01-19T03:58:25.162Z,97.71
2018-01-19T04:00:52.770Z,97.95
2018-01-19T04:03:20.354Z,97.80
2018-01-19T04:05:47.970Z,97.64
2018-01-19T04:08:15.554Z,97.46
2018-01-19T04:10:43.267Z,97.07
2018-01-19T04:13:10.843Z,96.74
2018-01-19T04:15:38.445Z,96.87
2018-01-19T04:18:06.022Z,96.56
2018-01-19T04:20:33.638Z,96.20
2018-01-19T04:23:01.214Z,96.17
2018-01-19T04:25:28.878Z,95.83
2018-01-19T04:27:56.457Z,95.93
2018-01-19T04:30:24.146Z,95.91
2018-01-19T04:32:51.751Z,96.09
2018-01-19T04:35:19.365Z,96.22
2018-01-19T04:37:46.946Z,96.27
2018-01-19T04:40:14.560Z,96.43
2018-01-19T04:42:42.137Z,96.93
2018-01-19T04:45:09.851Z,97.07
2018-01-19T04:47:37.425Z,97.17
2018-01-19T04:50:05.057Z,97.03
2018-01-19T04:52:32.649Z,97.12
2018-01-19T04:55:00.250Z,96.87
2018-01-19T04:57:27.842Z,97.09
2018-01-19T04:59:55.445Z,97.08
2018-01-19T05:02:23.022Z,97.18
2018-01-19T05:04:50.638Z,97.22
2018-01-19T05:07:18.230Z,97.09
2018-01-19T05:09:45.845Z,97.15
2018-01-19T05:12:13.602Z,97.21
2018-01-19T05:14:41.213Z,97.04
2018-01-19T05:17:08.785Z,97.19
2018-01-19T05:19:36.413Z,96.91
2018-01-19T05:22:03.995Z,96.95
2018-01-19T05:24:31.606Z,97.07
2018-01-19T05:26:59.210Z,97.08
2018-01-19T05:29:26.785Z,97.17
2018-01-19T05:31:54.466Z,97.37
2018-01-19T05:34:22.058Z,97.47
2018-01-19T05:36:49.681Z,97.63
2018-01-19T05:39:17.266Z,97.89
2018-01-19T05:41:44.885Z,98.32
2018-01-19T05:44:12.482Z,98.88
2018-01-19T05:46:40.389Z,99.23
2018-01-19T05:49:07.987Z,99.33
2018-01-19T05:51:35.589Z,99.25
2018-01-19T05:54:03.184Z,98.86
2018-01-19T05:56:30.801Z,98.87
2018-01-19T05:58:58.412Z,98.72
2018-01-19T06:01:25.989Z,98.51
2018-01-19T06:03:53.614Z,98.17
2018-01-19T06:06:21.186Z,97.43
2018-01-19T06:08:48.805Z,97.28
2018-01-19T06:11:16.385Z,97.40
2018-01-19T06:13:44.082Z,97.42
2018-01-19T06:16:11.671Z,97.18
2018-01-19T06:18:39.238Z,96.91
2018-01-19T06:21:06.855Z,97.13
2018-01-19T06:23:34.463Z,96.94
2018-01-19T06:26:02.039Z,96.68
2018-01-19T06:28:29.788Z,96.68
2018-01-19T06:30:57.418Z,96.68
2018-01-19T06:33:25.015Z,96.56
2018-01-19T06:35:52.634Z,96.41
2018-01-19T06:38:20.250Z,96.57
2018-01-19T06:40:47.880Z,96.79
2018-01-19T06:43:15.531Z,96.84
2018-01-19T06:45:43.148Z,97.16
2018-01-19T06:48:10.752Z,97.55
2018-01-19T06:50:38.365Z,97.86
2018-01-19T06:53:05.953Z,97.97
2018-01-19T06:55:33.630Z,97.81
2018-01-19T06:58:01.211Z,97.72
2018-01-19T07:00:28.894Z,97.47
2018-01-19T07:02:56.498Z,97.23
2018-01-19T07:05:24.110Z,97.38
2018-01-19T07:07:51.754Z,96.86
2018-01-19T07:10:19.449Z,96.43
2018-01-19T07:12:47.074Z,96.41
2018-01-19T07:15:14.657Z,96.58
2018-01-19T07:17:42.316Z,96.46
2018-01-19T07:20:09.898Z,96.37
2018-01-19T07:22:37.509Z,96.44
2018-01-19T07:25:05.155Z,96.59
2018-01-19T07:27:33.726Z,97.91
2018-01-19T07:30:01.366Z,96.36
2018-01-19T07:32:29.006Z,96.22
2018-01-19T07:34:56.599Z,96.36
2018-01-19T07:37:24.224Z,96.40
2018-01-19T07:39:51.837Z,96.50
2018-01-19T07:42:19.505Z,96.78
2018-01-19T07:44:47.121Z,96.85
2018-01-19T07:47:14.707Z,97.18
2018-01-19T07:49:42.390Z,97.36
2018-01-19T07:52:10.022Z,97.53
2018-01-19T07:54:37.658Z,97.76
2018-01-19T07:57:05.242Z,97.52
2018-01-19T07:59:33.009Z,97.60
2018-01-19T08:02:00.598Z,97.44
2018-01-19T08:04:28.266Z,97.51
2018-01-19T08:06:55.867Z,97.50
2018-01-19T08:09:23.491Z,97.53
2018-01-19T08:11:51.298Z,97.56
2018-01-19T08:14:18.925Z,97.80
2018-01-19T08:16:46.526Z,97.92
2018-01-19T08:19:14.150Z,98.13
2018-01-19T08:21:41.805Z,97.83
2018-01-19T08:24:09.434Z,97.62
2018-01-19T08:26:37.081Z,97.61
2018-01-19T08:29:04.698Z,97.53
2018-01-19T08:31:32.323Z,97.67
2018-01-19T08:34:00.035Z,97.48
2018-01-19T08:36:27.636Z,97.22
2018-01-19T08:38:55.262Z,97.33
2018-01-19T08:41:22.867Z,97.06
2018-01-19T08:43:50.527Z,97.10
2018-01-19T08:46:18.142Z,96.64
2018-01-19T08:48:45.746Z,96.76
2018-01-19T08:51:13.334Z,96.31
2018-01-19T08:53:40.971Z,95.95
2018-01-19T08:56:08.561Z,95.53
2018-01-19T08:58:36.187Z,95.52
2018-01-19T09:01:03.782Z,95.52
2018-01-19T09:03:31.410Z,95.57
2018-01-19T09:05:59.015Z,95.52
2018-01-19T09:08:26.810Z,95.67
2018-01-19T09:10:54.419Z,95.61
2018-01-19T09:13:22.034Z,95.43
2018-01-19T09:15:49.657Z,95.15
2018-01-19T09:18:17.303Z,94.30
2018-01-19T09:20:44.889Z,94.46
2018-01-19T09:23:12.502Z,94.29
2018-01-19T09:25:40.115Z,94.00
2018-01-19T09:28:07.833Z,93.33
2018-01-19T09:30:35.439Z,92.52
2018-01-19T09:33:03.082Z,92.26
2018-01-19T09:35:30.706Z,91.72
2018-01-19T09:37:58.333Z,91.33
2018-01-19T09:40:25.925Z,91.20
2018-01-19T09:42:53.689Z,90.53
2018-01-19T09:45:21.253Z,90.09
2018-01-19T09:47:48.889Z,89.54
2018-01-19T09:50:16.502Z,89.12
2018-01-19T09:52:44.130Z,88.71
2018-01-19T09:55:11.718Z,88.10
2018-01-19T09:57:39.348Z,88.07
2018-01-19T10:00:06.946Z,87.32
2018-01-19T10:02:34.619Z,87.12
2018-01-19T10:05:02.226Z,86.98
2018-01-19T10:07:29.996Z,86.85
2018-01-19T10:09:57.589Z,86.52
2018-01-19T10:12:25.221Z,86.55
2018-01-19T10:14:52.821Z,86.59
2018-01-19T10:17:20.463Z,87.33
2018-01-19T10:19:48.063Z,87.94
2018-01-19T10:22:15.679Z,88.08
2018-01-19T10:24:43.249Z,87.96
2018-01-19T10:27:10.892Z,88.14
2018-01-19T10:29:38.508Z,88.35
2018-01-19T10:32:06.128Z,88.79
2018-01-19T10:34:33.708Z,88.81
2018-01-19T10:37:01.341Z,88.74
2018-01-19T10:39:28.934Z,87.98
2018-01-19T10:41:56.581Z,88.26
2018-01-19T10:44:24.175Z,88.82
2018-01-19T10:46:51.796Z,88.23
2018-01-19T10:49:19.448Z,87.86
2018-01-19T10:51:47.048Z,88.32
2018-01-19T10:54:14.629Z,88.28
2018-01-19T10:56:42.298Z,88.39
2018-01-19T10:59:09.958Z,88.35
2018-01-19T11:01:37.623Z,87.54
2018-01-19T11:04:05.226Z,87.89
2018-01-19T11:06:32.854Z,87.73
2018-01-19T11:09:00.477Z,87.82
2018-01-19T11:11:28.109Z,87.21
2018-01-19T11:13:55.738Z,87.58
2018-01-19T11:16:23.367Z,87.25
2018-01-19T11:18:50.982Z,87.30
2018-01-19T11:21:18.621Z,86.83
2018-01-19T11:23:46.199Z,86.72
2018-01-19T11:26:13.837Z,86.74
2018-01-19T11:28:41.439Z,87.05
2018-01-19T11:31:09.058Z,87.03
2018-01-19T11:33:36.654Z,87.03
2018-01-19T11:36:04.281Z,86.86
2018-01-19T11:38:31.886Z,86.87
2018-01-19T11:40:59.501Z,87.17
2018-01-19T11:43:27.101Z,87.01
2018-01-19T11:45:54.726Z,86.40
2018-01-19T11:48:22.345Z,85.76
2018-01-19T11:50:50.030Z,86.05
2018-01-19T11:53:17.702Z,85.95
2018-01-19T11:55:45.305Z,86.48
2018-01-19T11:58:12.899Z,86.39
2018-01-19T12:00:40.542Z,87.35
2018-01-19T12:03:08.284Z,86.67
2018-01-19T12:05:35.903Z,85.94
2018-01-19T12:08:03.545Z,85.00
2018-01-19T12:10:31.156Z,84.16
2018-01-19T12:12:58.813Z,83.62
2018-01-19T12:15:26.426Z,83.46
2018-01-19T12:17:54.051Z,84.12
2018-01-19T12:20:21.638Z,83.82
2018-01-19T12:22:49.278Z,83.87
2018-01-19T12:25:16.869Z,83.31
2018-01-19T12:27:44.495Z,82.72
2018-01-19T12:30:12.198Z,82.65
2018-01-19T12:32:39.838Z,81.83
2018-01-19T12:35:07.427Z,81.34
2018-01-19T12:37:35.047Z,81.65
2018-01-19T12:40:02.871Z,80.50
2018-01-19T12:42:30.535Z,81.09
2018-01-19T12:44:58.162Z,81.57
2018-01-19T12:47:25.782Z,81.55
2018-01-19T12:49:53.409Z,81.30
2018-01-19T12:52:20.990Z,81.01
2018-01-19T12:54:48.641Z,80.41
2018-01-19T12:57:16.248Z,80.17
2018-01-19T12:59:43.913Z,80.87
2018-01-19T13:02:11.519Z,81.15
2018-01-19T13:04:39.150Z,79.64
2018-01-19T13:07:06.995Z,79.61
2018-01-19T13:09:34.620Z,77.99
2018-01-19T13:12:02.254Z,77.46
2018-01-19T13:14:29.898Z,76.86
2018-01-19T13:16:57.504Z,76.74
2018-01-19T13:19:25.122Z,77.26
2018-01-19T13:21:52.731Z,75.86
2018-01-19T13:24:20.355Z,75.41
2018-01-19T13:26:47.958Z,75.62
2018-01-19T13:29:15.599Z,75.93
2018-01-19T13:31:43.198Z,76.16
2018-01-19T13:34:11.054Z,75.83
2018-01-19T13:36:38.664Z,75.64
2018-01-19T13:39:06.289Z,74.39
2018-01-19T13:41:33.886Z,74.26
2018-01-19T13:44:01.526Z,71.47
2018-01-19T13:46:29.172Z,68.51
2018-01-19T13:48:56.791Z,67.79
2018-01-19T13:51:24.417Z,65.70
2018-01-19T13:53:52.044Z,67.13
2018-01-19T13:56:19.713Z,66.96
2018-01-19T13:58:47.382Z,67.23
2018-01-19T14:01:15.003Z,67.17
2018-01-19T14:03:42.615Z,66.73
2018-01-19T14:06:10.303Z,66.23
2018-01-19T14:08:37.902Z,66.72
2018-01-19T14:11:05.548Z,66.26
2018-01-19T14:13:33.150Z,66.84
2018-01-19T14:16:00.789Z,66.71
2018-01-19T14:18:28.402Z,67.78
2018-01-19T14:20:56.034Z,68.33
2018-01-19T14:23:23.638Z,68.87
2018-01-19T14:25:51.304Z,69.57
2018-01-19T14:28:18.922Z,69.72
2018-01-19T14:30:46.546Z,69.60
2018-01-19T14:33:14.183Z,69.91
2018-01-19T14:35:41.827Z,71.22
2018-01-19T14:38:09.406Z,71.91
2018-01-19T14:40:37.059Z,72.41
2018-01-19T14:43:04.689Z,72.84
2018-01-19T14:45:32.314Z,72.79
2018-01-19T14:47:59.899Z,73.21
2018-01-19T14:50:27.552Z,73.25
2018-01-19T14:52:55.168Z,73.68
2018-01-19T14:55:22.802Z,73.48
2018-01-19T14:57:50.379Z,73.44
2018-01-19T15:00:18.051Z,73.20
2018-01-19T15:02:45.658Z,73.61
2018-01-19T15:05:13.299Z,73.09
2018-01-19T15:07:40.906Z,72.93
2018-01-19T15:10:08.559Z,73.79
2018-01-19T15:12:36.141Z,73.69
2018-01-19T15:15:03.726Z,73.73
2018-01-19T15:17:31.381Z,74.15
2018-01-19T15:19:58.984Z,74.51
2018-01-19T15:22:26.598Z,74.62
2018-01-19T15:24:54.192Z,74.58
2018-01-19T15:27:21.941Z,74.73
2018-01-19T15:29:49.566Z,74.65
2018-01-19T15:32:17.194Z,74.77
2018-01-19T15:34:44.821Z,74.84
2018-01-19T15:37:12.474Z,75.31
2018-01-19T15:39:40.086Z,75.19
2018-01-19T15:42:07.725Z,75.04
2018-01-19T15:44:35.353Z,75.09
2018-01-19T15:47:02.958Z,75.05
2018-01-19T15:49:30.568Z,75.15
2018-01-19T15:51:58.179Z,75.39
2018-01-19T15:54:25.899Z,75.33
2018-01-19T15:56:53.494Z,75.39
2018-01-19T15:59:21.118Z,75.73
2018-01-19T16:01:48.710Z,75.73
2018-01-19T16:04:16.333Z,75.06
2018-01-19T16:06:43.918Z,74.76
2018-01-19T16:09:11.568Z,74.57
2018-01-19T16:11:39.157Z,74.78
2018-01-19T16:14:06.804Z,74.63
2018-01-19T16:16:34.398Z,75.01
2018-01-19T16:19:02.031Z,74.90
2018-01-19T16:21:29.634Z,75.16
2018-01-19T16:23:57.297Z,74.84
2018-01-19T16:26:24.892Z,75.00
2018-01-19T16:28:52.527Z,74.86
2018-01-19T16:31:20.118Z,74.33
2018-01-19T16:33:47.723Z,74.72
2018-01-19T16:36:15.346Z,75.05
2018-01-19T16:38:43.026Z,74.95
2018-01-19T16:41:10.711Z,74.63
2018-01-19T16:43:38.547Z,74.83
2018-01-19T16:46:06.182Z,74.91
2018-01-19T16:48:33.792Z,74.89
2018-01-19T16:51:01.455Z,74.99
2018-01-19T16:53:29.101Z,75.18
2018-01-19T16:55:56.841Z,75.23
2018-01-19T16:58:24.494Z,75.02
2018-01-19T17:00:52.096Z,75.21
2018-01-19T17:03:19.714Z,75.07
2018-01-19T17:05:47.507Z,75.13
2018-01-19T17:08:15.135Z,75.42
2018-01-19T17:10:42.765Z,75.35
2018-01-19T17:13:10.386Z,75.38
2018-01-19T17:15:38.024Z,75.23
2018-01-19T17:18:06.461Z,75.39
2018-01-19T17:20:34.053Z,75.63
2018-01-19T17:23:01.917Z,76.03
2018-01-19T17:25:29.515Z,76.15
2018-01-19T17:27:57.107Z,76.17
2018-01-19T17:30:24.733Z,75.84
2018-01-19T17:32:52.382Z,75.77
2018-01-19T17:35:19.977Z,75.93
2018-01-19T17:37:47.657Z,76.21
2018-01-19T17:40:15.264Z,76.38
2018-01-19T17:42:42.866Z,76.61
2018-01-19T17:45:10.565Z,76.88
2018-01-19T17:47:38.191Z,77.01
2018-01-19T17:50:05.825Z,77.11
2018-01-19T17:52:33.448Z,77.33
2018-01-19T17:55:01.073Z,77.67
2018-01-19T17:57:28.660Z,77.83
2018-01-19T17:59:56.298Z,78.18
2018-01-19T18:02:23.939Z,78.28
2018-01-19T18:04:51.597Z,78.72
2018-01-19T18:07:20.058Z,79.20
2018-01-19T18:09:47.718Z,79.35
2018-01-19T18:12:15.321Z,79.38
2018-01-19T18:14:42.953Z,79.62
2018-01-19T18:17:10.562Z,79.96
2018-01-19T18:19:38.515Z,80.22
2018-01-19T18:22:06.186Z,80.33
2018-01-19T18:24:33.825Z,80.57
2018-01-19T18:27:01.524Z,80.83
2018-01-19T18:29:29.121Z,80.88
2018-01-19T18:31:56.758Z,81.12
2018-01-19T18:34:24.376Z,80.74
2018-01-19T18:36:52.075Z,80.91
2018-01-19T18:39:19.709Z,80.91
2018-01-19T18:41:47.311Z,80.89
2018-01-19T18:44:14.950Z,80.66
2018-01-19T18:46:42.570Z,80.61
2018-01-19T18:49:10.230Z,80.71
2018-01-19T18:51:37.840Z,80.62
2018-01-19T18:54:05.488Z,80.54
2018-01-19T18:56:33.155Z,80.75
2018-01-19T18:59:00.790Z,80.95
2018-01-19T19:01:28.388Z,81.01
2018-01-19T19:03:56.027Z,81.09
2018-01-19T19:06:23.633Z,81.54
2018-01-19T19:08:51.282Z,81.57
2018-01-19T19:11:18.907Z,81.71
2018-01-19T19:13:46.538Z,81.79
2018-01-19T19:16:14.126Z,82.08
2018-01-19T19:18:41.773Z,82.21
2018-01-19T19:21:09.372Z,82.50
2018-01-19T19:23:37.002Z,82.54
2018-01-19T19:26:04.617Z,82.39
2018-01-19T19:28:32.259Z,82.55
2018-01-19T19:30:59.885Z,82.61
2018-01-19T19:33:27.548Z,82.65
2018-01-19T19:35:55.151Z,82.78
2018-01-19T19:38:22.779Z,83.12
2018-01-19T19:40:50.385Z,83.33
2018-01-19T19:43:18.165Z,83.40
2018-01-19T19:45:45.755Z,83.48
2018-01-19T19:48:13.441Z,83.39
2018-01-19T19:50:41.046Z,83.25
2018-01-19T19:53:08.689Z,83.32
2018-01-19T19:55:36.289Z,83.37
2018-01-19T19:58:04.063Z,83.53
2018-01-19T20:00:31.694Z,83.65
2018-01-19T20:02:59.357Z,83.94
2018-01-19T20:05:27.069Z,84.03
2018-01-19T20:07:54.797Z,83.92
2018-01-19T20:10:22.418Z,83.72
2018-01-19T20:12:50.041Z,83.60
2018-01-19T20:15:17.656Z,83.78
2018-01-19T20:17:45.360Z,83.90
2018-01-19T20:20:12.979Z,84.09
2018-01-19T20:22:40.683Z,84.28
2018-01-19T20:25:08.342Z,84.24
2018-01-19T20:27:36.199Z,84.40
2018-01-19T20:30:03.834Z,84.32
2018-01-19T20:32:31.494Z,84.32
2018-01-19T20:34:59.106Z,84.09
2018-01-19T20:37:26.774Z,84.00
2018-01-19T20:39:54.391Z,84.10
2018-01-19T20:42:22.039Z,84.27
2018-01-19T20:44:49.680Z,84.37
2018-01-19T20:47:17.320Z,84.22
2018-01-19T20:49:44.976Z,84.53
2018-01-19T20:52:12.654Z,84.72
2018-01-19T20:54:41.115Z,84.99
2018-01-19T20:57:08.791Z,85.12
2018-01-19T20:59:36.380Z,85.22
2018-01-19T21:02:04.360Z,85.26
2018-01-19T21:04:32.036Z,85.36
2018-01-19T21:06:59.914Z,85.41
2018-01-19T21:09:27.568Z,85.26
2018-01-19T21:11:55.185Z,85.36
2018-01-19T21:14:22.829Z,85.51
2018-01-19T21:16:50.464Z,85.76
2018-01-19T21:19:18.075Z,85.73
2018-01-19T21:21:45.701Z,85.63
2018-01-19T21:24:13.307Z,85.70
2018-01-19T21:26:40.943Z,85.72
2018-01-19T21:29:08.554Z,85.62
2018-01-19T21:31:36.199Z,85.69
2018-01-19T21:34:04.820Z,85.30
2018-01-19T21:36:32.450Z,85.54
2018-01-19T21:39:00.063Z,85.36
2018-01-19T21:41:27.676Z,85.23
2018-01-19T21:43:55.344Z,85.20
2018-01-19T21:46:22.980Z,85.21
2018-01-19T21:48:50.573Z,85.11
2018-01-19T21:51:18.215Z,85.36
2018-01-19T21:53:45.814Z,85.63
2018-01-19T21:56:13.423Z,85.86
2018-01-19T21:58:41.047Z,85.90
2018-01-19T22:01:08.678Z,85.98
2018-01-19T22:03:36.282Z,86.12
2018-01-19T22:06:03.890Z,86.21
2018-01-19T22:08:31.512Z,86.18
2018-01-19T22:10:59.337Z,86.27
2018-01-19T22:13:26.966Z,86.14
2018-01-19T22:15:54.561Z,86.23
2018-01-19T22:18:22.219Z,86.28
2018-01-19T22:20:49.883Z,86.63
2018-01-19T22:23:17.505Z,86.76
2018-01-19T22:25:45.115Z,86.60
2018-01-19T22:28:12.747Z,86.75
2018-01-19T22:30:40.341Z,86.83
2018-01-19T22:33:07.982Z,86.86
2018-01-19T22:35:35.589Z,86.87
2018-01-19T22:38:03.209Z,86.97
2018-01-19T22:40:30.823Z,86.90
2018-01-19T22:42:58.444Z,86.80
2018-01-19T22:45:26.026Z,86.87
2018-01-19T22:47:53.722Z,86.86
2018-01-19T22:50:21.324Z,86.86
2018-01-19T22:52:48.957Z,86.98
2018-01-19T22:55:16.622Z,87.16
2018-01-19T22:57:44.261Z,87.15
2018-01-19T23:00:26.562Z,87.29
2018-01-19T23:02:54.210Z,87.53
2018-01-19T23:05:21.817Z,87.84
2018-01-19T23:07:49.455Z,87.80
2018-01-19T23:10:17.082Z,87.74
2018-01-19T23:12:44.720Z,87.83
2018-01-19T23:15:12.314Z,87.82
2018-01-19T23:17:39.954Z,87.79
2018-01-19T23:20:07.537Z,87.63
2018-01-19T23:22:35.180Z,87.76
2018-01-19T23:25:02.861Z,87.76
2018-01-19T23:27:30.507Z,87.81
2018-01-19T23:29:58.101Z,87.80
2018-01-19T23:32:25.714Z,87.79
2018-01-19T23:34:53.310Z,87.76
2018-01-19T23:37:20.934Z,87.84
2018-01-19T23:39:48.549Z,87.93
2018-01-19T23:42:16.264Z,87.70
2018-01-19T23:44:43.859Z,87.90
2018-01-19T23:47:11.495Z,87.95
2018-01-19T23:49:39.093Z,87.78
2018-01-19T23:52:06.739Z,87.63
2018-01-19T23:54:34.317Z,87.59
2018-01-19T23:57:01.930Z,87.49
2018-01-19T23:59:29.518Z,87.40
